Solana — WCY5602 — position and weather

sailwx.info

Track history (hours):
 
Tides and Currents Weather Stations Pressure Air Temp Water Temp Dewpoint Dewpoint Depression Visibility Wind Speed Wind Dir Waves Ship Positions

Solana

Owner: TAURUS MARINE, SAN FRANCISCO, CA. More information available from US FCC via Universal Licensing System and Coast Guard Vessel Documentation Center.

Last reported at 2017-Aug-17 15:29 UTC. Time now 2017-Aug-17 15:36 UTC.
Position N 37°31' W 122°13'.

Length 21 m; draft 3 m.

Type: Ship (hazmat cat A). MMSI: 366969740.

Date/timePositionNaut miles runAvg speedWind from/ knotsBaromVisibWave heightAir tempDewpointWater temp
2017-Aug-17 15:29N 37°31' W 122°13'0 0.0
2017-Aug-17 15:00N 37°31' W 122°13'0 0.0
2017-Aug-17 14:30N 37°31' W 122°13'0 0.0
2017-Aug-17 14:00N 37°31' W 122°13'0 0.0
2017-Aug-17 13:30N 37°31' W 122°13'0 0.0
2017-Aug-17 13:00N 37°31' W 122°13'0 0.0
2017-Aug-17 12:31N 37°31' W 122°13'0 0.0
2017-Aug-17 12:01N 37°31' W 122°13'0 0.0
2017-Aug-17 11:30N 37°31' W 122°13'0 0.0
2017-Aug-17 11:00N 37°31' W 122°13'0 0.0
2017-Aug-17 10:30N 37°31' W 122°13'0 0.0
2017-Aug-17 10:00N 37°31' W 122°13'0 0.0
2017-Aug-17 09:30N 37°31' W 122°13'0 0.0
2017-Aug-17 09:00N 37°31' W 122°13'0 0.0
2017-Aug-17 08:30N 37°31' W 122°13'0 0.0
2017-Aug-17 08:00N 37°31' W 122°13'0 0.0
2017-Aug-17 07:30N 37°31' W 122°13'0 0.0
2017-Aug-17 07:00N 37°31' W 122°13'0 0.0
2017-Aug-17 06:30N 37°31' W 122°13'0 0.2
2017-Aug-17 06:00N 37°30' W 122°13'0 0.3
2017-Aug-17 05:30N 37°31' W 122°13'2 4.5
2017-Aug-17 05:00N 37°33' W 122°12'2 3.8
2017-Aug-17 04:30N 37°34' W 122°13'2 4.2
2017-Aug-17 04:00N 37°32' W 122°12'2 4.1
2017-Aug-17 03:29N 37°31' W 122°13'0 0.0
2017-Aug-17 03:00N 37°31' W 122°13'0 0.0
2017-Aug-17 02:30N 37°31' W 122°13'0 0.0
2017-Aug-17 02:00N 37°31' W 122°13'0 0.0
2017-Aug-17 01:29N 37°31' W 122°13'0 0.0
2017-Aug-17 00:59N 37°31' W 122°13'0 0.0
2017-Aug-17 00:29N 37°31' W 122°13'0 0.0
2017-Aug-17 00:00N 37°31' W 122°13'0 0.1
2017-Aug-16 23:23N 37°31' W 122°13'1 2.2
2017-Aug-16 23:00N 37°31' W 122°12'3 5.5
2017-Aug-16 22:30N 37°34' W 122°13'1 2.5
2017-Aug-16 22:00N 37°33' W 122°12'2 3.7
2017-Aug-16 21:30N 37°31' W 122°12'1 1.8
2017-Aug-16 20:59N 37°31' W 122°13'0 0.1
2017-Aug-16 20:30N 37°31' W 122°13'0 0.0
2017-Aug-16 20:00N 37°31' W 122°13'0 0.0
2017-Aug-16 19:30N 37°31' W 122°13'0 0.0
2017-Aug-16 19:00N 37°31' W 122°13'0 0.0
2017-Aug-16 18:31N 37°31' W 122°13'0 0.0
2017-Aug-16 18:00N 37°31' W 122°13'0 0.0
2017-Aug-16 17:31N 37°31' W 122°13'0 0.0
2017-Aug-16 17:00N 37°31' W 122°13'0 0.0
2017-Aug-16 16:30N 37°31' W 122°13'0 0.0
2017-Aug-16 16:00N 37°31' W 122°13'0 0.0
2017-Aug-16 15:30N 37°31' W 122°13'0 0.0
2017-Aug-16 15:01N 37°31' W 122°13'0 0.0
2017-Aug-16 14:30N 37°31' W 122°13'0 0.0
2017-Aug-16 14:00N 37°31' W 122°13'0 0.1
2017-Aug-16 13:30N 37°31' W 122°13'0 0.5
2017-Aug-16 12:59N 37°30' W 122°13'0 0.0
2017-Aug-16 12:30N 37°30' W 122°13'0 0.0
2017-Aug-16 12:00N 37°30' W 122°13'0 0.0
2017-Aug-16 11:28N 37°30' W 122°13'0 0.1
2017-Aug-16 11:00N 37°30' W 122°13'0 0.0
2017-Aug-16 10:30N 37°30' W 122°13'2 4.4
2017-Aug-16 10:00N 37°32' W 122°12'2 4.0
2017-Aug-16 09:30N 37°34' W 122°13'2 2.9
2017-Aug-16 08:59N 37°33' W 122°12'3 5.4
2017-Aug-16 08:29N 37°30' W 122°13'0 0.1
2017-Aug-16 07:59N 37°30' W 122°13'0 0.0
2017-Aug-16 07:30N 37°30' W 122°13'0 0.0
2017-Aug-16 07:00N 37°30' W 122°13'0 0.0
2017-Aug-16 06:26N 37°30' W 122°13'0 0.0
2017-Aug-16 05:55N 37°30' W 122°13'0 0.0
2017-Aug-16 05:29N 37°30' W 122°13'0 0.0
2017-Aug-16 05:00N 37°30' W 122°13'0 0.1
2017-Aug-16 04:30N 37°30' W 122°13'0 0.0
2017-Aug-16 04:00N 37°30' W 122°13'3 4.8
2017-Aug-16 03:22N 37°33' W 122°11'1 2.1
2017-Aug-16 03:00N 37°32' W 122°12'2 4.4
2017-Aug-16 02:30N 37°30' W 122°13'0 0.1
2017-Aug-16 02:00N 37°30' W 122°13'0 0.0
2017-Aug-16 01:30N 37°30' W 122°13'0 0.0
2017-Aug-16 01:00N 37°30' W 122°13'0 0.0
2017-Aug-16 00:30N 37°30' W 122°13'0 0.0
2017-Aug-16 00:00N 37°30' W 122°13'0 0.0
2017-Aug-15 23:30N 37°30' W 122°13'0 0.0
2017-Aug-15 23:00N 37°30' W 122°13'0 0.0
2017-Aug-15 22:30N 37°30' W 122°13'0 0.0
2017-Aug-15 22:00N 37°30' W 122°13'0 0.0
2017-Aug-15 21:30N 37°30' W 122°13'0 0.0
2017-Aug-15 21:00N 37°30' W 122°13'0 0.0
2017-Aug-15 20:30N 37°30' W 122°13'0 0.0
2017-Aug-15 20:00N 37°30' W 122°13'0 0.3
2017-Aug-15 19:30N 37°30' W 122°13'0 0.0
2017-Aug-15 19:00N 37°30' W 122°13'0 0.0
2017-Aug-15 18:30N 37°30' W 122°13'0 0.0
2017-Aug-15 18:00N 37°30' W 122°13'0 0.0
2017-Aug-15 17:30N 37°30' W 122°13'0 0.0
2017-Aug-15 17:00N 37°30' W 122°13'0 0.0
2017-Aug-15 16:30N 37°30' W 122°13'0 0.0
2017-Aug-15 16:00N 37°30' W 122°13'0 0.0
2017-Aug-15 15:30N 37°30' W 122°13'0 0.0
2017-Aug-15 15:00N 37°30' W 122°13'0 0.0
2017-Aug-15 14:30N 37°30' W 122°13'1 1.9
2017-Aug-15 14:00N 37°31' W 122°12'2 5.0
2017-Aug-15 13:30N 37°34' W 122°12'1 1.3
2017-Aug-15 13:00N 37°33' W 122°12'2 5.0
2017-Aug-15 12:30N 37°31' W 122°13'0 0.8
2017-Aug-15 12:00N 37°30' W 122°13'0 0.0
2017-Aug-15 11:30N 37°30' W 122°13'0 0.0
2017-Aug-15 11:00N 37°30' W 122°13'0 0.0
2017-Aug-15 10:30N 37°30' W 122°13'0 0.0
2017-Aug-15 10:00N 37°30' W 122°13'0 0.0
2017-Aug-15 09:29N 37°30' W 122°13'0 0.0
2017-Aug-15 09:00N 37°30' W 122°13'0 0.1
2017-Aug-15 08:27N 37°31' W 122°13'0 0.1
2017-Aug-15 08:00N 37°31' W 122°13'2 4.1
2017-Aug-15 07:30N 37°32' W 122°12'2 4.6
2017-Aug-15 06:59N 37°34' W 122°13'1 1.5
2017-Aug-15 06:30N 37°34' W 122°13'3 5.0
2017-Aug-15 06:00N 37°31' W 122°12'1 2.2
2017-Aug-15 05:30N 37°30' W 122°13'0 0.0
2017-Aug-15 05:01N 37°30' W 122°13'0 0.0
2017-Aug-15 04:29N 37°30' W 122°13'0 0.0
2017-Aug-15 04:00N 37°30' W 122°13'0 0.0
2017-Aug-15 03:30N 37°30' W 122°13'0 0.0
2017-Aug-15 03:00N 37°30' W 122°13'0 0.0
2017-Aug-15 02:30N 37°30' W 122°13'0 0.0
2017-Aug-15 02:00N 37°30' W 122°13'0 0.0
2017-Aug-15 01:30N 37°30' W 122°13'0 0.0
2017-Aug-15 01:00N 37°30' W 122°13'0 0.0
2017-Aug-15 00:30N 37°31' W 122°13'0 0.0
2017-Aug-15 00:00N 37°31' W 122°13'0 0.0
2017-Aug-14 23:30N 37°31' W 122°13'0 0.0
2017-Aug-14 23:00N 37°31' W 122°13'0 0.0
2017-Aug-14 22:30N 37°31' W 122°13'0 0.0
2017-Aug-14 22:00N 37°31' W 122°13'0 0.0
2017-Aug-14 21:30N 37°31' W 122°13'0 0.0
2017-Aug-14 20:59N 37°31' W 122°13'0 0.0
2017-Aug-14 20:30N 37°31' W 122°13'0 0.1
2017-Aug-14 19:58N 37°31' W 122°13'0 0.0
2017-Aug-14 19:30N 37°31' W 122°13'0 0.5
2017-Aug-14 19:00N 37°31' W 122°13'2 4.1
2017-Aug-14 18:30N 37°33' W 122°12'1 3.0
2017-Aug-14 18:00N 37°34' W 122°13'1 1.5
2017-Aug-14 17:30N 37°33' W 122°12'2 4.2
2017-Aug-14 17:00N 37°31' W 122°12'1 1.7
2017-Aug-14 16:30N 37°31' W 122°13'0 0.0
2017-Aug-14 16:00N 37°31' W 122°13'0 0.0
2017-Aug-14 15:30N 37°31' W 122°13'0 0.0
2017-Aug-14 15:00N 37°31' W 122°13'0 0.1
2017-Aug-14 14:30N 37°31' W 122°13'0 0.1
2017-Aug-14 14:00N 37°31' W 122°13'0 0.1
2017-Aug-14 13:30N 37°31' W 122°13'0 0.0
2017-Aug-14 13:00N 37°31' W 122°13'0 0.0
2017-Aug-14 12:30N 37°31' W 122°13'0 0.0
2017-Aug-14 12:00N 37°31' W 122°13'0 0.2
2017-Aug-14 11:30N 37°31' W 122°13'1 1.0
2017-Aug-14 11:00N 37°31' W 122°13'2 4.4
2017-Aug-14 10:29N 37°33' W 122°12'1 2.5
2017-Aug-14 10:00N 37°34' W 122°13'2 3.5
2017-Aug-14 09:30N 37°32' W 122°12'2 3.7
2017-Aug-14 09:00N 37°31' W 122°13'0 0.8
2017-Aug-14 08:30N 37°30' W 122°13'0 0.0
2017-Aug-14 08:00N 37°30' W 122°13'0 0.0
2017-Aug-14 07:30N 37°30' W 122°13'0 0.0
2017-Aug-14 07:00N 37°30' W 122°13'0 0.0
2017-Aug-14 06:30N 37°30' W 122°13'0 0.0
2017-Aug-14 06:00N 37°30' W 122°13'0 0.0
2017-Aug-14 05:30N 37°30' W 122°13'0 0.0
2017-Aug-14 05:00N 37°30' W 122°13'0 0.0
2017-Aug-14 04:30N 37°30' W 122°13'0 0.3
2017-Aug-14 03:53N 37°30' W 122°13'0 0.0
2017-Aug-14 03:20N 37°30' W 122°13'0 0.0
2017-Aug-14 03:00N 37°30' W 122°13'0 0.0
2017-Aug-14 02:29N 37°30' W 122°13'0 0.0
2017-Aug-14 02:00N 37°30' W 122°13'0 0.1
2017-Aug-14 01:30N 37°30' W 122°13'0 0.0
2017-Aug-14 01:00N 37°30' W 122°13'0 0.0
2017-Aug-14 00:30N 37°30' W 122°13'0 0.0
2017-Aug-14 00:00N 37°30' W 122°13'0 0.1
2017-Aug-13 23:30N 37°30' W 122°13'1 2.8
2017-Aug-13 23:00N 37°32' W 122°12'2 4.1
2017-Aug-13 22:30N 37°34' W 122°12'1 2.5
2017-Aug-13 22:00N 37°32' W 122°12'2 4.2
2017-Aug-13 21:30N 37°31' W 122°13'0 0.3
2017-Aug-13 21:00N 37°30' W 122°13'0 0.0
2017-Aug-13 20:30N 37°30' W 122°13'0 0.0
2017-Aug-13 20:00N 37°30' W 122°13'0 0.0
2017-Aug-13 19:30N 37°30' W 122°13'0 0.2
2017-Aug-13 18:59N 37°30' W 122°13'0 0.0
2017-Aug-13 18:25N 37°30' W 122°13'0 0.0
2017-Aug-13 18:00N 37°30' W 122°13'0 0.0
2017-Aug-13 17:30N 37°30' W 122°13'0 0.0
2017-Aug-13 17:00N 37°30' W 122°13'0 0.0
2017-Aug-13 16:30N 37°30' W 122°13'0 0.2
2017-Aug-13 16:00N 37°31' W 122°13'3 5.5
2017-Aug-13 15:30N 37°33' W 122°12'1 1.3
2017-Aug-13 15:00N 37°34' W 122°12'2 3.2
2017-Aug-13 14:30N 37°32' W 122°12'2 3.5
2017-Aug-13 13:59N 37°31' W 122°13'0 0.0
2017-Aug-13 13:30N 37°31' W 122°13'0 0.0
2017-Aug-13 12:59N 37°31' W 122°13'0 0.0
2017-Aug-13 12:30N 37°31' W 122°13'0 0.0
2017-Aug-13 12:00N 37°31' W 122°13'0 0.2
2017-Aug-13 11:30N 37°31' W 122°13'0 0.3
2017-Aug-13 10:59N 37°31' W 122°13'0 0.1
2017-Aug-13 10:30N 37°31' W 122°13'0 0.0
2017-Aug-13 10:00N 37°31' W 122°13'0 0.0
2017-Aug-13 09:30N 37°31' W 122°13'0 0.0
2017-Aug-13 09:00N 37°31' W 122°13'0 0.0
2017-Aug-13 08:30N 37°31' W 122°13'0 0.0
2017-Aug-13 08:00N 37°31' W 122°13'0 0.0
2017-Aug-13 07:29N 37°31' W 122°13'0 0.0
2017-Aug-13 07:00N 37°31' W 122°13'0 0.0
2017-Aug-13 06:30N 37°31' W 122°13'0 0.0
2017-Aug-13 06:00N 37°31' W 122°13'0 0.0
2017-Aug-13 05:30N 37°31' W 122°13'0 0.0
2017-Aug-13 04:59N 37°31' W 122°13'1 1.9
2017-Aug-13 04:25N 37°31' W 122°12'2 5.4
2017-Aug-13 04:00N 37°34' W 122°13'0 0.4
2017-Aug-13 03:30N 37°34' W 122°12'2 4.0
2017-Aug-13 03:00N 37°32' W 122°12'1 2.8
2017-Aug-13 02:30N 37°31' W 122°13'0 0.0
2017-Aug-13 02:00N 37°31' W 122°13'0 0.0
2017-Aug-13 01:30N 37°31' W 122°13'0 0.0
2017-Aug-13 01:00N 37°31' W 122°13'0 0.0
2017-Aug-13 00:30N 37°31' W 122°13'0 0.0
2017-Aug-13 00:00N 37°31' W 122°13'0 0.0
2017-Aug-12 23:30N 37°31' W 122°13'0 0.0
2017-Aug-12 23:00N 37°31' W 122°13'0 0.0
2017-Aug-12 22:30N 37°31' W 122°13'0 0.0
2017-Aug-12 22:00N 37°31' W 122°13'0 0.0
2017-Aug-12 21:30N 37°31' W 122°13'0 0.0
2017-Aug-12 21:00N 37°31' W 122°13'0 0.2
2017-Aug-12 20:29N 37°31' W 122°13'0 0.2
2017-Aug-12 20:00N 37°31' W 122°13'0 0.1
2017-Aug-12 19:29N 37°31' W 122°13'3 5.4
2017-Aug-12 19:00N 37°33' W 122°12'2 4.1
2017-Aug-12 18:30N 37°34' W 122°14'2 4.1
2017-Aug-12 18:00N 37°33' W 122°12'2 4.7
2017-Aug-12 17:30N 37°31' W 122°13'0 0.3
2017-Aug-12 17:00N 37°31' W 122°13'0 0.0
2017-Aug-12 16:29N 37°31' W 122°13'0 0.0
2017-Aug-12 16:00N 37°31' W 122°13'0 0.2
2017-Aug-12 15:29N 37°31' W 122°13'0 0.0
2017-Aug-12 15:00N 37°31' W 122°13'0 0.2
2017-Aug-12 14:30N 37°31' W 122°13'0 0.1
2017-Aug-12 14:01N 37°31' W 122°13'0 0.6
2017-Aug-12 13:30N 37°30' W 122°13'0 0.0
2017-Aug-12 13:01N 37°30' W 122°13'0 0.1
2017-Aug-12 12:30N 37°30' W 122°13'0 0.5
2017-Aug-12 12:00N 37°31' W 122°13'0 0.0
2017-Aug-12 11:30N 37°31' W 122°13'0 0.0
2017-Aug-12 11:00N 37°31' W 122°13'0 0.0
2017-Aug-12 10:30N 37°31' W 122°13'0 0.0
2017-Aug-12 10:00N 37°31' W 122°13'0 0.0
2017-Aug-12 09:30N 37°31' W 122°13'1 1.4
2017-Aug-12 08:59N 37°31' W 122°12'2 5.1
2017-Aug-12 08:30N 37°34' W 122°12'1 1.4
2017-Aug-12 08:01N 37°33' W 122°12'2 4.2
2017-Aug-12 07:31N 37°31' W 122°12'1 1.4
2017-Aug-12 07:01N 37°31' W 122°13'0 0.0
2017-Aug-12 06:30N 37°31' W 122°13'0 0.0
2017-Aug-12 06:00N 37°31' W 122°13'0 0.0
2017-Aug-12 05:30N 37°31' W 122°13'0 0.0
2017-Aug-12 05:00N 37°31' W 122°13'0 0.0
2017-Aug-12 04:30N 37°31' W 122°13'0 0.0
2017-Aug-12 04:00N 37°31' W 122°13'0 0.0
2017-Aug-12 03:30N 37°31' W 122°13'0 0.0
2017-Aug-12 03:00N 37°31' W 122°13'0 0.3
2017-Aug-12 02:28N 37°30' W 122°13'0 0.0
2017-Aug-12 02:00N 37°30' W 122°13'0 0.0
2017-Aug-12 01:30N 37°30' W 122°13'0 0.0
2017-Aug-12 01:00N 37°30' W 122°13'0 0.0
2017-Aug-12 00:30N 37°30' W 122°13'0 0.0
2017-Aug-12 00:00N 37°30' W 122°13'0 0.0
2017-Aug-11 23:30N 37°30' W 122°13'0 0.0
2017-Aug-11 23:00N 37°30' W 122°13'0 0.0
2017-Aug-11 22:30N 37°30' W 122°13'0 0.0
2017-Aug-11 22:00N 37°30' W 122°13'0 0.0
2017-Aug-11 21:30N 37°30' W 122°13'0 1.0
2017-Aug-11 21:00N 37°31' W 122°13'0 0.2
2017-Aug-11 20:30N 37°31' W 122°13'0 0.7
2017-Aug-11 20:00N 37°31' W 122°13'0 0.4
2017-Aug-11 19:30N 37°30' W 122°13'0 0.0
2017-Aug-11 19:00N 37°30' W 122°13'0 0.0
2017-Aug-11 18:30N 37°30' W 122°13'0 0.0
2017-Aug-11 18:00N 37°30' W 122°13'0 0.0
2017-Aug-11 17:29N 37°31' W 122°13'0 0.0
2017-Aug-11 17:00N 37°31' W 122°13'0 0.0
2017-Aug-11 16:20N 37°31' W 122°13'0 0.0
2017-Aug-11 16:00N 37°31' W 122°13'0 0.0
2017-Aug-11 15:30N 37°31' W 122°13'0 0.0
2017-Aug-11 15:00N 37°31' W 122°13'3 2.7
2017-Aug-11 14:00N 37°33' W 122°12'1 2.1
2017-Aug-11 13:30N 37°34' W 122°13'2 3.9
2017-Aug-11 13:00N 37°32' W 122°12'2 3.9
2017-Aug-11 12:30N 37°30' W 122°13'0 0.2
2017-Aug-11 12:00N 37°31' W 122°13'0 0.0
2017-Aug-11 11:29N 37°31' W 122°13'0 0.0
2017-Aug-11 10:57N 37°31' W 122°13'0 0.0
2017-Aug-11 10:30N 37°31' W 122°13'0 0.0
2017-Aug-11 09:58N 37°31' W 122°13'0 0.0
2017-Aug-11 09:30N 37°31' W 122°13'0 0.0
2017-Aug-11 09:00N 37°31' W 122°13'0 0.0
2017-Aug-11 08:30N 37°31' W 122°13'0 0.0
2017-Aug-11 08:00N 37°31' W 122°13'0 0.0
2017-Aug-11 07:30N 37°31' W 122°13'0 0.0
2017-Aug-11 07:00N 37°31' W 122°13'0 0.0
2017-Aug-11 06:30N 37°31' W 122°13'0 0.0
2017-Aug-11 06:00N 37°31' W 122°13'0 0.0
2017-Aug-11 05:30N 37°31' W 122°13'0 0.0
2017-Aug-11 05:00N 37°31' W 122°13'0 0.0
2017-Aug-11 04:30N 37°31' W 122°13'0 0.0
2017-Aug-11 04:00N 37°31' W 122°13'0 0.0
2017-Aug-11 03:30N 37°31' W 122°13'0 0.0
2017-Aug-11 03:00N 37°31' W 122°13'0 0.0
2017-Aug-11 02:30N 37°31' W 122°13'0 0.0
2017-Aug-11 02:00N 37°31' W 122°13'0 0.0
2017-Aug-11 01:30N 37°31' W 122°13'0 0.0
2017-Aug-11 01:00N 37°31' W 122°13'0 0.0
2017-Aug-11 00:30N 37°31' W 122°13'0 0.0
2017-Aug-10 23:59N 37°31' W 122°13'0 0.0
2017-Aug-10 23:30N 37°31' W 122°13'0 0.0
2017-Aug-10 23:00N 37°31' W 122°13'0 0.0
2017-Aug-10 22:30N 37°31' W 122°13'0 0.0
2017-Aug-10 22:00N 37°31' W 122°13'0 0.9
2017-Aug-10 21:30N 37°31' W 122°13'2 4.8
2017-Aug-10 21:00N 37°33' W 122°11'0 0.6
2017-Aug-10 20:30N 37°33' W 122°12'3 5.3
2017-Aug-10 20:00N 37°31' W 122°13'0 0.1
2017-Aug-10 19:30N 37°31' W 122°13'0 0.0
2017-Aug-10 19:00N 37°31' W 122°13'0 0.0
2017-Aug-10 18:30N 37°31' W 122°13'0 0.0
2017-Aug-10 18:00N 37°31' W 122°13'0 0.0
2017-Aug-10 17:30N 37°31' W 122°13'0 0.2
2017-Aug-10 17:00N 37°31' W 122°13'0 0.0
2017-Aug-10 16:30N 37°31' W 122°13'0 0.0
2017-Aug-10 16:00N 37°31' W 122°13'0 0.0
2017-Aug-10 15:30N 37°31' W 122°13'0 0.2
2017-Aug-10 15:00N 37°31' W 122°13'0 0.1
2017-Aug-10 14:30N 37°31' W 122°13'0 0.0
2017-Aug-10 13:56N 37°31' W 122°13'0 0.3
2017-Aug-10 13:30N 37°31' W 122°13'2 3.5
2017-Aug-10 13:00N 37°32' W 122°12'1 2.4
2017-Aug-10 12:30N 37°31' W 122°12'1 1.6
2017-Aug-10 12:00N 37°31' W 122°13'0 0.2
2017-Aug-10 11:29N 37°31' W 122°13'0 0.0
2017-Aug-10 10:41N 37°31' W 122°13'0 0.0
2017-Aug-10 10:27N 37°31' W 122°13'0 0.0
2017-Aug-10 10:00N 37°31' W 122°13'0 0.0
2017-Aug-10 09:28N 37°31' W 122°13'0 0.0
2017-Aug-10 09:00N 37°31' W 122°13'0 0.0
2017-Aug-10 08:30N 37°31' W 122°13'0 0.0
2017-Aug-10 07:59N 37°31' W 122°13'0 0.0
2017-Aug-10 07:24N 37°31' W 122°13'0 0.0
2017-Aug-10 07:00N 37°31' W 122°13'0 0.0
2017-Aug-10 06:26N 37°31' W 122°13'0 0.0
2017-Aug-10 05:57N 37°31' W 122°13'0 0.0
2017-Aug-10 05:28N 37°31' W 122°13'0 0.0
2017-Aug-10 05:00N 37°31' W 122°13'0 0.0
2017-Aug-10 04:30N 37°31' W 122°13'0 0.0
2017-Aug-10 03:59N 37°31' W 122°13'0 0.0
2017-Aug-10 03:21N 37°31' W 122°13'0 0.0
2017-Aug-10 03:00N 37°31' W 122°13'0 0.7
2017-Aug-10 02:30N 37°30' W 122°13'0 0.0
2017-Aug-10 02:01N 37°30' W 122°13'0 0.0
2017-Aug-10 01:28N 37°30' W 122°13'0 0.0
2017-Aug-10 01:00N 37°30' W 122°13'0 0.0
2017-Aug-10 00:30N 37°30' W 122°13'0 0.2
2017-Aug-09 23:59N 37°30' W 122°13'3 5.8
2017-Aug-09 23:30N 37°33' W 122°12'0 0.4
2017-Aug-09 23:00N 37°33' W 122°12'2 4.9
2017-Aug-09 22:30N 37°31' W 122°13'1 1.3
2017-Aug-09 22:00N 37°30' W 122°13'0 0.1
2017-Aug-09 21:30N 37°30' W 122°13'0 0.1
2017-Aug-09 21:00N 37°30' W 122°13'0 0.0
2017-Aug-09 20:30N 37°30' W 122°13'0 0.0
2017-Aug-09 20:00N 37°30' W 122°13'0 0.0
2017-Aug-09 19:30N 37°30' W 122°13'0 0.0
2017-Aug-09 18:59N 37°30' W 122°13'0 0.0
2017-Aug-09 18:29N 37°30' W 122°13'0 0.0
2017-Aug-09 17:57N 37°30' W 122°13'0 0.0
2017-Aug-09 17:30N 37°30' W 122°13'0 0.0
2017-Aug-09 16:59N 37°30' W 122°13'0 0.0
2017-Aug-09 16:26N 37°30' W 122°13'0 0.0
2017-Aug-09 16:00N 37°30' W 122°13'0 0.1
2017-Aug-09 15:30N 37°30' W 122°13'1 2.2
2017-Aug-09 15:00N 37°31' W 122°12'1 1.7
2017-Aug-09 14:30N 37°31' W 122°13'0 0.7
2017-Aug-09 14:00N 37°30' W 122°13'0 0.0
2017-Aug-09 13:30N 37°30' W 122°13'0 0.0
2017-Aug-09 12:59N 37°30' W 122°13'0 0.0
2017-Aug-09 12:30N 37°30' W 122°13'0 0.0
2017-Aug-09 12:00N 37°30' W 122°13'0 0.0
2017-Aug-09 11:30N 37°30' W 122°13'0 0.0
2017-Aug-09 11:00N 37°30' W 122°13'0 0.0
2017-Aug-09 10:30N 37°30' W 122°13'0 0.0
2017-Aug-09 10:00N 37°30' W 122°13'0 0.0
2017-Aug-09 08:43N 37°30' W 122°13'0 0.0
2017-Aug-09 08:30N 37°30' W 122°13'0 0.0
2017-Aug-09 08:01N 37°30' W 122°13'0 0.1
2017-Aug-09 07:28N 37°30' W 122°13'0 0.0
2017-Aug-09 06:58N 37°30' W 122°13'0 0.0
2017-Aug-09 06:26N 37°30' W 122°13'0 0.0
2017-Aug-09 05:57N 37°30' W 122°13'0 0.0
2017-Aug-09 05:25N 37°30' W 122°13'0 0.0
2017-Aug-09 04:59N 37°30' W 122°13'0 0.0
2017-Aug-09 04:21N 37°30' W 122°13'0 0.0
2017-Aug-09 04:00N 37°30' W 122°13'0 0.0
2017-Aug-09 03:30N 37°30' W 122°13'0 0.0
2017-Aug-09 02:59N 37°30' W 122°13'0 0.0
2017-Aug-09 02:31N 37°30' W 122°13'0 0.0
2017-Aug-09 02:00N 37°30' W 122°13'0 0.0
2017-Aug-09 01:31N 37°30' W 122°13'0 0.0
2017-Aug-09 01:00N 37°30' W 122°13'0 0.1
2017-Aug-09 00:30N 37°30' W 122°13'0 0.0
2017-Aug-09 00:01N 37°30' W 122°13'0 0.0
2017-Aug-08 23:28N 37°30' W 122°13'0 0.1
2017-Aug-08 23:00N 37°30' W 122°13'1 1.4
2017-Aug-08 22:30N 37°31' W 122°12'0 0.5
2017-Aug-08 22:00N 37°31' W 122°12'1 1.9
2017-Aug-08 21:30N 37°30' W 122°13'0 0.1
2017-Aug-08 20:51N 37°30' W 122°13'0 0.0
2017-Aug-08 20:30N 37°30' W 122°13'0 0.0
2017-Aug-08 20:00N 37°30' W 122°13'0 0.0
2017-Aug-08 19:31N 37°31' W 122°13'0 0.0
2017-Aug-08 19:00N 37°31' W 122°13'0 0.0
2017-Aug-08 18:30N 37°31' W 122°13'0 0.0
2017-Aug-08 18:00N 37°31' W 122°13'0 0.0
2017-Aug-08 17:30N 37°31' W 122°13'0 0.0
2017-Aug-08 17:00N 37°31' W 122°13'0 0.4
2017-Aug-08 16:30N 37°31' W 122°13'1 1.5
2017-Aug-08 16:00N 37°31' W 122°12'0 0.3
2017-Aug-08 15:30N 37°31' W 122°12'1 2.3
2017-Aug-08 15:00N 37°30' W 122°13'0 0.0
2017-Aug-08 14:30N 37°30' W 122°13'0 0.0
2017-Aug-08 14:00N 37°30' W 122°13'0 0.0
2017-Aug-08 13:30N 37°30' W 122°13'0 0.0
2017-Aug-08 12:09N 37°31' W 122°13'0 0.0
2017-Aug-08 12:01N 37°31' W 122°13'0 0.0
2017-Aug-08 11:30N 37°31' W 122°13'0 0.0
2017-Aug-08 10:58N 37°31' W 122°13'0 0.0
2017-Aug-08 10:30N 37°31' W 122°13'0 0.0
2017-Aug-08 09:58N 37°31' W 122°13'0 0.0
2017-Aug-08 09:31N 37°31' W 122°13'0 0.0
2017-Aug-08 09:00N 37°31' W 122°13'0 0.0
2017-Aug-08 08:30N 37°31' W 122°13'0 0.1
2017-Aug-08 08:00N 37°31' W 122°13'0 0.0
2017-Aug-08 07:30N 37°31' W 122°13'0 0.0
2017-Aug-08 06:59N 37°31' W 122°13'0 0.0
2017-Aug-08 06:31N 37°31' W 122°13'0 0.0
2017-Aug-08 06:01N 37°31' W 122°13'0 0.0
2017-Aug-08 05:31N 37°31' W 122°13'0 0.0
2017-Aug-08 05:00N 37°31' W 122°13'0 0.0
2017-Aug-08 04:31N 37°31' W 122°13'0 0.0
2017-Aug-08 04:01N 37°31' W 122°13'0 0.0
2017-Aug-08 03:29N 37°31' W 122°13'0 0.0
2017-Aug-08 02:59N 37°31' W 122°13'0 0.4
2017-Aug-08 02:29N 37°31' W 122°13'0 0.1
2017-Aug-08 00:47N 37°31' W 122°13'0 0.0
2017-Aug-08 00:30N 37°31' W 122°13'0 0.0
2017-Aug-08 00:00N 37°31' W 122°13'0 0.0
2017-Aug-07 23:30N 37°31' W 122°13'0 0.0
2017-Aug-07 23:00N 37°31' W 122°13'0 0.0
2017-Aug-07 22:30N 37°31' W 122°13'0 0.0
2017-Aug-07 22:00N 37°31' W 122°13'0 0.0
2017-Aug-07 21:31N 37°31' W 122°13'0 0.0
2017-Aug-07 21:00N 37°31' W 122°13'0 0.4
2017-Aug-07 20:30N 37°31' W 122°13'0 0.4
2017-Aug-07 20:00N 37°31' W 122°13'0 0.0
2017-Aug-07 19:30N 37°31' W 122°13'0 0.0
2017-Aug-07 19:00N 37°31' W 122°13'0 0.0
2017-Aug-07 18:30N 37°31' W 122°13'0 0.0
2017-Aug-07 18:00N 37°31' W 122°13'0 0.0
2017-Aug-07 17:30N 37°31' W 122°13'0 0.0
2017-Aug-07 17:00N 37°31' W 122°13'0 0.4
2017-Aug-07 16:30N 37°30' W 122°13'0 0.1
2017-Aug-07 16:00N 37°30' W 122°13'0 0.0
2017-Aug-07 15:30N 37°30' W 122°13'  
Track history (hours):
 
Tides and Currents Weather Stations Pressure Air Temp Water Temp Dewpoint Dewpoint Depression Visibility Wind Speed Wind Dir Waves Ship Positions

Solana

Owner: TAURUS MARINE, SAN FRANCISCO, CA. More information available from US FCC via Universal Licensing System and Coast Guard Vessel Documentation Center.

Last reported at 2017-Aug-17 15:29 UTC. Time now 2017-Aug-17 15:36 UTC.
Position N 37°31' W 122°13'.

Length 21 m; draft 3 m.

Type: Ship (hazmat cat A). MMSI: 366969740.

Date/timePositionNaut miles runAvg speedWind from/ knotsBaromVisibWave heightAir tempDewpointWater temp
2017-Aug-17 15:29N 37°31' W 122°13'0 0.0
2017-Aug-17 15:00N 37°31' W 122°13'0 0.0
2017-Aug-17 14:30N 37°31' W 122°13'0 0.0
2017-Aug-17 14:00N 37°31' W 122°13'0 0.0
2017-Aug-17 13:30N 37°31' W 122°13'0 0.0
2017-Aug-17 13:00N 37°31' W 122°13'0 0.0
2017-Aug-17 12:31N 37°31' W 122°13'0 0.0
2017-Aug-17 12:01N 37°31' W 122°13'0 0.0
2017-Aug-17 11:30N 37°31' W 122°13'0 0.0
2017-Aug-17 11:00N 37°31' W 122°13'0 0.0
2017-Aug-17 10:30N 37°31' W 122°13'0 0.0
2017-Aug-17 10:00N 37°31' W 122°13'0 0.0
2017-Aug-17 09:30N 37°31' W 122°13'0 0.0
2017-Aug-17 09:00N 37°31' W 122°13'0 0.0
2017-Aug-17 08:30N 37°31' W 122°13'0 0.0
2017-Aug-17 08:00N 37°31' W 122°13'0 0.0
2017-Aug-17 07:30N 37°31' W 122°13'0 0.0
2017-Aug-17 07:00N 37°31' W 122°13'0 0.0
2017-Aug-17 06:30N 37°31' W 122°13'0 0.2
2017-Aug-17 06:00N 37°30' W 122°13'0 0.3
2017-Aug-17 05:30N 37°31' W 122°13'2 4.5
2017-Aug-17 05:00N 37°33' W 122°12'2 3.8
2017-Aug-17 04:30N 37°34' W 122°13'2 4.2
2017-Aug-17 04:00N 37°32' W 122°12'2 4.1
2017-Aug-17 03:29N 37°31' W 122°13'0 0.0
2017-Aug-17 03:00N 37°31' W 122°13'0 0.0
2017-Aug-17 02:30N 37°31' W 122°13'0 0.0
2017-Aug-17 02:00N 37°31' W 122°13'0 0.0
2017-Aug-17 01:29N 37°31' W 122°13'0 0.0
2017-Aug-17 00:59N 37°31' W 122°13'0 0.0
2017-Aug-17 00:29N 37°31' W 122°13'0 0.0
2017-Aug-17 00:00N 37°31' W 122°13'0 0.1
2017-Aug-16 23:23N 37°31' W 122°13'1 2.2
2017-Aug-16 23:00N 37°31' W 122°12'3 5.5
2017-Aug-16 22:30N 37°34' W 122°13'1 2.5
2017-Aug-16 22:00N 37°33' W 122°12'2 3.7
2017-Aug-16 21:30N 37°31' W 122°12'1 1.8
2017-Aug-16 20:59N 37°31' W 122°13'0 0.1
2017-Aug-16 20:30N 37°31' W 122°13'0 0.0
2017-Aug-16 20:00N 37°31' W 122°13'0 0.0
2017-Aug-16 19:30N 37°31' W 122°13'0 0.0
2017-Aug-16 19:00N 37°31' W 122°13'0 0.0
2017-Aug-16 18:31N 37°31' W 122°13'0 0.0
2017-Aug-16 18:00N 37°31' W 122°13'0 0.0
2017-Aug-16 17:31N 37°31' W 122°13'0 0.0
2017-Aug-16 17:00N 37°31' W 122°13'0 0.0
2017-Aug-16 16:30N 37°31' W 122°13'0 0.0
2017-Aug-16 16:00N 37°31' W 122°13'0 0.0
2017-Aug-16 15:30N 37°31' W 122°13'0 0.0
2017-Aug-16 15:01N 37°31' W 122°13'0 0.0
2017-Aug-16 14:30N 37°31' W 122°13'0 0.0
2017-Aug-16 14:00N 37°31' W 122°13'0 0.1
2017-Aug-16 13:30N 37°31' W 122°13'0 0.5
2017-Aug-16 12:59N 37°30' W 122°13'0 0.0
2017-Aug-16 12:30N 37°30' W 122°13'0 0.0
2017-Aug-16 12:00N 37°30' W 122°13'0 0.0
2017-Aug-16 11:28N 37°30' W 122°13'0 0.1
2017-Aug-16 11:00N 37°30' W 122°13'0 0.0
2017-Aug-16 10:30N 37°30' W 122°13'2 4.4
2017-Aug-16 10:00N 37°32' W 122°12'2 4.0
2017-Aug-16 09:30N 37°34' W 122°13'2 2.9
2017-Aug-16 08:59N 37°33' W 122°12'3 5.4
2017-Aug-16 08:29N 37°30' W 122°13'0 0.1
2017-Aug-16 07:59N 37°30' W 122°13'0 0.0
2017-Aug-16 07:30N 37°30' W 122°13'0 0.0
2017-Aug-16 07:00N 37°30' W 122°13'0 0.0
2017-Aug-16 06:26N 37°30' W 122°13'0 0.0
2017-Aug-16 05:55N 37°30' W 122°13'0 0.0
2017-Aug-16 05:29N 37°30' W 122°13'0 0.0
2017-Aug-16 05:00N 37°30' W 122°13'0 0.1
2017-Aug-16 04:30N 37°30' W 122°13'0 0.0
2017-Aug-16 04:00N 37°30' W 122°13'3 4.8
2017-Aug-16 03:22N 37°33' W 122°11'1 2.1
2017-Aug-16 03:00N 37°32' W 122°12'2 4.4
2017-Aug-16 02:30N 37°30' W 122°13'0 0.1
2017-Aug-16 02:00N 37°30' W 122°13'0 0.0
2017-Aug-16 01:30N 37°30' W 122°13'0 0.0
2017-Aug-16 01:00N 37°30' W 122°13'0 0.0
2017-Aug-16 00:30N 37°30' W 122°13'0 0.0
2017-Aug-16 00:00N 37°30' W 122°13'0 0.0
2017-Aug-15 23:30N 37°30' W 122°13'0 0.0
2017-Aug-15 23:00N 37°30' W 122°13'0 0.0
2017-Aug-15 22:30N 37°30' W 122°13'0 0.0
2017-Aug-15 22:00N 37°30' W 122°13'0 0.0
2017-Aug-15 21:30N 37°30' W 122°13'0 0.0
2017-Aug-15 21:00N 37°30' W 122°13'0 0.0
2017-Aug-15 20:30N 37°30' W 122°13'0 0.0
2017-Aug-15 20:00N 37°30' W 122°13'0 0.3
2017-Aug-15 19:30N 37°30' W 122°13'0 0.0
2017-Aug-15 19:00N 37°30' W 122°13'0 0.0
2017-Aug-15 18:30N 37°30' W 122°13'0 0.0
2017-Aug-15 18:00N 37°30' W 122°13'0 0.0
2017-Aug-15 17:30N 37°30' W 122°13'0 0.0
2017-Aug-15 17:00N 37°30' W 122°13'0 0.0
2017-Aug-15 16:30N 37°30' W 122°13'0 0.0
2017-Aug-15 16:00N 37°30' W 122°13'0 0.0
2017-Aug-15 15:30N 37°30' W 122°13'0 0.0
2017-Aug-15 15:00N 37°30' W 122°13'0 0.0
2017-Aug-15 14:30N 37°30' W 122°13'1 1.9
2017-Aug-15 14:00N 37°31' W 122°12'2 5.0
2017-Aug-15 13:30N 37°34' W 122°12'1 1.3
2017-Aug-15 13:00N 37°33' W 122°12'2 5.0
2017-Aug-15 12:30N 37°31' W 122°13'0 0.8
2017-Aug-15 12:00N 37°30' W 122°13'0 0.0
2017-Aug-15 11:30N 37°30' W 122°13'0 0.0
2017-Aug-15 11:00N 37°30' W 122°13'0 0.0
2017-Aug-15 10:30N 37°30' W 122°13'0 0.0
2017-Aug-15 10:00N 37°30' W 122°13'0 0.0
2017-Aug-15 09:29N 37°30' W 122°13'0 0.0
2017-Aug-15 09:00N 37°30' W 122°13'0 0.1
2017-Aug-15 08:27N 37°31' W 122°13'0 0.1
2017-Aug-15 08:00N 37°31' W 122°13'2 4.1
2017-Aug-15 07:30N 37°32' W 122°12'2 4.6
2017-Aug-15 06:59N 37°34' W 122°13'1 1.5
2017-Aug-15 06:30N 37°34' W 122°13'3 5.0
2017-Aug-15 06:00N 37°31' W 122°12'1 2.2
2017-Aug-15 05:30N 37°30' W 122°13'0 0.0
2017-Aug-15 05:01N 37°30' W 122°13'0 0.0
2017-Aug-15 04:29N 37°30' W 122°13'0 0.0
2017-Aug-15 04:00N 37°30' W 122°13'0 0.0
2017-Aug-15 03:30N 37°30' W 122°13'0 0.0
2017-Aug-15 03:00N 37°30' W 122°13'0 0.0
2017-Aug-15 02:30N 37°30' W 122°13'0 0.0
2017-Aug-15 02:00N 37°30' W 122°13'0 0.0
2017-Aug-15 01:30N 37°30' W 122°13'0 0.0
2017-Aug-15 01:00N 37°30' W 122°13'0 0.0
2017-Aug-15 00:30N 37°31' W 122°13'0 0.0
2017-Aug-15 00:00N 37°31' W 122°13'0 0.0
2017-Aug-14 23:30N 37°31' W 122°13'0 0.0
2017-Aug-14 23:00N 37°31' W 122°13'0 0.0
2017-Aug-14 22:30N 37°31' W 122°13'0 0.0
2017-Aug-14 22:00N 37°31' W 122°13'0 0.0
2017-Aug-14 21:30N 37°31' W 122°13'0 0.0
2017-Aug-14 20:59N 37°31' W 122°13'0 0.0
2017-Aug-14 20:30N 37°31' W 122°13'0 0.1
2017-Aug-14 19:58N 37°31' W 122°13'0 0.0
2017-Aug-14 19:30N 37°31' W 122°13'0 0.5
2017-Aug-14 19:00N 37°31' W 122°13'2 4.1
2017-Aug-14 18:30N 37°33' W 122°12'1 3.0
2017-Aug-14 18:00N 37°34' W 122°13'1 1.5
2017-Aug-14 17:30N 37°33' W 122°12'2 4.2
2017-Aug-14 17:00N 37°31' W 122°12'1 1.7
2017-Aug-14 16:30N 37°31' W 122°13'0 0.0
2017-Aug-14 16:00N 37°31' W 122°13'0 0.0
2017-Aug-14 15:30N 37°31' W 122°13'0 0.0
2017-Aug-14 15:00N 37°31' W 122°13'0 0.1
2017-Aug-14 14:30N 37°31' W 122°13'0 0.1
2017-Aug-14 14:00N 37°31' W 122°13'0 0.1
2017-Aug-14 13:30N 37°31' W 122°13'0 0.0
2017-Aug-14 13:00N 37°31' W 122°13'0 0.0
2017-Aug-14 12:30N 37°31' W 122°13'0 0.0
2017-Aug-14 12:00N 37°31' W 122°13'0 0.2
2017-Aug-14 11:30N 37°31' W 122°13'1 1.0
2017-Aug-14 11:00N 37°31' W 122°13'2 4.4
2017-Aug-14 10:29N 37°33' W 122°12'1 2.5
2017-Aug-14 10:00N 37°34' W 122°13'2 3.5
2017-Aug-14 09:30N 37°32' W 122°12'2 3.7
2017-Aug-14 09:00N 37°31' W 122°13'0 0.8
2017-Aug-14 08:30N 37°30' W 122°13'0 0.0
2017-Aug-14 08:00N 37°30' W 122°13'0 0.0
2017-Aug-14 07:30N 37°30' W 122°13'0 0.0
2017-Aug-14 07:00N 37°30' W 122°13'0 0.0
2017-Aug-14 06:30N 37°30' W 122°13'0 0.0
2017-Aug-14 06:00N 37°30' W 122°13'0 0.0
2017-Aug-14 05:30N 37°30' W 122°13'0 0.0
2017-Aug-14 05:00N 37°30' W 122°13'0 0.0
2017-Aug-14 04:30N 37°30' W 122°13'0 0.3
2017-Aug-14 03:53N 37°30' W 122°13'0 0.0
2017-Aug-14 03:20N 37°30' W 122°13'0 0.0
2017-Aug-14 03:00N 37°30' W 122°13'0 0.0
2017-Aug-14 02:29N 37°30' W 122°13'0 0.0
2017-Aug-14 02:00N 37°30' W 122°13'0 0.1
2017-Aug-14 01:30N 37°30' W 122°13'0 0.0
2017-Aug-14 01:00N 37°30' W 122°13'0 0.0
2017-Aug-14 00:30N 37°30' W 122°13'0 0.0
2017-Aug-14 00:00N 37°30' W 122°13'0 0.1
2017-Aug-13 23:30N 37°30' W 122°13'1 2.8
2017-Aug-13 23:00N 37°32' W 122°12'2 4.1
2017-Aug-13 22:30N 37°34' W 122°12'1 2.5
2017-Aug-13 22:00N 37°32' W 122°12'2 4.2
2017-Aug-13 21:30N 37°31' W 122°13'0 0.3
2017-Aug-13 21:00N 37°30' W 122°13'0 0.0
2017-Aug-13 20:30N 37°30' W 122°13'0 0.0
2017-Aug-13 20:00N 37°30' W 122°13'0 0.0
2017-Aug-13 19:30N 37°30' W 122°13'0 0.2
2017-Aug-13 18:59N 37°30' W 122°13'0 0.0
2017-Aug-13 18:25N 37°30' W 122°13'0 0.0
2017-Aug-13 18:00N 37°30' W 122°13'0 0.0
2017-Aug-13 17:30N 37°30' W 122°13'0 0.0
2017-Aug-13 17:00N 37°30' W 122°13'0 0.0
2017-Aug-13 16:30N 37°30' W 122°13'0 0.2
2017-Aug-13 16:00N 37°31' W 122°13'3 5.5
2017-Aug-13 15:30N 37°33' W 122°12'1 1.3
2017-Aug-13 15:00N 37°34' W 122°12'2 3.2
2017-Aug-13 14:30N 37°32' W 122°12'2 3.5
2017-Aug-13 13:59N 37°31' W 122°13'0 0.0
2017-Aug-13 13:30N 37°31' W 122°13'0 0.0
2017-Aug-13 12:59N 37°31' W 122°13'0 0.0
2017-Aug-13 12:30N 37°31' W 122°13'0 0.0
2017-Aug-13 12:00N 37°31' W 122°13'0 0.2
2017-Aug-13 11:30N 37°31' W 122°13'0 0.3
2017-Aug-13 10:59N 37°31' W 122°13'0 0.1
2017-Aug-13 10:30N 37°31' W 122°13'0 0.0
2017-Aug-13 10:00N 37°31' W 122°13'0 0.0
2017-Aug-13 09:30N 37°31' W 122°13'0 0.0
2017-Aug-13 09:00N 37°31' W 122°13'0 0.0
2017-Aug-13 08:30N 37°31' W 122°13'0 0.0
2017-Aug-13 08:00N 37°31' W 122°13'0 0.0
2017-Aug-13 07:29N 37°31' W 122°13'0 0.0
2017-Aug-13 07:00N 37°31' W 122°13'0 0.0
2017-Aug-13 06:30N 37°31' W 122°13'0 0.0
2017-Aug-13 06:00N 37°31' W 122°13'0 0.0
2017-Aug-13 05:30N 37°31' W 122°13'0 0.0
2017-Aug-13 04:59N 37°31' W 122°13'1 1.9
2017-Aug-13 04:25N 37°31' W 122°12'2 5.4
2017-Aug-13 04:00N 37°34' W 122°13'0 0.4
2017-Aug-13 03:30N 37°34' W 122°12'2 4.0
2017-Aug-13 03:00N 37°32' W 122°12'1 2.8
2017-Aug-13 02:30N 37°31' W 122°13'0 0.0
2017-Aug-13 02:00N 37°31' W 122°13'0 0.0
2017-Aug-13 01:30N 37°31' W 122°13'0 0.0
2017-Aug-13 01:00N 37°31' W 122°13'0 0.0
2017-Aug-13 00:30N 37°31' W 122°13'0 0.0
2017-Aug-13 00:00N 37°31' W 122°13'0 0.0
2017-Aug-12 23:30N 37°31' W 122°13'0 0.0
2017-Aug-12 23:00N 37°31' W 122°13'0 0.0
2017-Aug-12 22:30N 37°31' W 122°13'0 0.0
2017-Aug-12 22:00N 37°31' W 122°13'0 0.0
2017-Aug-12 21:30N 37°31' W 122°13'0 0.0
2017-Aug-12 21:00N 37°31' W 122°13'0 0.2
2017-Aug-12 20:29N 37°31' W 122°13'0 0.2
2017-Aug-12 20:00N 37°31' W 122°13'0 0.1
2017-Aug-12 19:29N 37°31' W 122°13'3 5.4
2017-Aug-12 19:00N 37°33' W 122°12'2 4.1
2017-Aug-12 18:30N 37°34' W 122°14'2 4.1
2017-Aug-12 18:00N 37°33' W 122°12'2 4.7
2017-Aug-12 17:30N 37°31' W 122°13'0 0.3
2017-Aug-12 17:00N 37°31' W 122°13'0 0.0
2017-Aug-12 16:29N 37°31' W 122°13'0 0.0
2017-Aug-12 16:00N 37°31' W 122°13'0 0.2
2017-Aug-12 15:29N 37°31' W 122°13'0 0.0
2017-Aug-12 15:00N 37°31' W 122°13'0 0.2
2017-Aug-12 14:30N 37°31' W 122°13'0 0.1
2017-Aug-12 14:01N 37°31' W 122°13'0 0.6
2017-Aug-12 13:30N 37°30' W 122°13'0 0.0
2017-Aug-12 13:01N 37°30' W 122°13'0 0.1
2017-Aug-12 12:30N 37°30' W 122°13'0 0.5
2017-Aug-12 12:00N 37°31' W 122°13'0 0.0
2017-Aug-12 11:30N 37°31' W 122°13'0 0.0
2017-Aug-12 11:00N 37°31' W 122°13'0 0.0
2017-Aug-12 10:30N 37°31' W 122°13'0 0.0
2017-Aug-12 10:00N 37°31' W 122°13'0 0.0
2017-Aug-12 09:30N 37°31' W 122°13'1 1.4
2017-Aug-12 08:59N 37°31' W 122°12'2 5.1
2017-Aug-12 08:30N 37°34' W 122°12'1 1.4
2017-Aug-12 08:01N 37°33' W 122°12'2 4.2
2017-Aug-12 07:31N 37°31' W 122°12'1 1.4
2017-Aug-12 07:01N 37°31' W 122°13'0 0.0
2017-Aug-12 06:30N 37°31' W 122°13'0 0.0
2017-Aug-12 06:00N 37°31' W 122°13'0 0.0
2017-Aug-12 05:30N 37°31' W 122°13'0 0.0
2017-Aug-12 05:00N 37°31' W 122°13'0 0.0
2017-Aug-12 04:30N 37°31' W 122°13'0 0.0
2017-Aug-12 04:00N 37°31' W 122°13'0 0.0
2017-Aug-12 03:30N 37°31' W 122°13'0 0.0
2017-Aug-12 03:00N 37°31' W 122°13'0 0.3
2017-Aug-12 02:28N 37°30' W 122°13'0 0.0
2017-Aug-12 02:00N 37°30' W 122°13'0 0.0
2017-Aug-12 01:30N 37°30' W 122°13'0 0.0
2017-Aug-12 01:00N 37°30' W 122°13'0 0.0
2017-Aug-12 00:30N 37°30' W 122°13'0 0.0
2017-Aug-12 00:00N 37°30' W 122°13'0 0.0
2017-Aug-11 23:30N 37°30' W 122°13'0 0.0
2017-Aug-11 23:00N 37°30' W 122°13'0 0.0
2017-Aug-11 22:30N 37°30' W 122°13'0 0.0
2017-Aug-11 22:00N 37°30' W 122°13'0 0.0
2017-Aug-11 21:30N 37°30' W 122°13'0 1.0
2017-Aug-11 21:00N 37°31' W 122°13'0 0.2
2017-Aug-11 20:30N 37°31' W 122°13'0 0.7
2017-Aug-11 20:00N 37°31' W 122°13'0 0.4
2017-Aug-11 19:30N 37°30' W 122°13'0 0.0
2017-Aug-11 19:00N 37°30' W 122°13'0 0.0
2017-Aug-11 18:30N 37°30' W 122°13'0 0.0
2017-Aug-11 18:00N 37°30' W 122°13'0 0.0
2017-Aug-11 17:29N 37°31' W 122°13'0 0.0
2017-Aug-11 17:00N 37°31' W 122°13'0 0.0
2017-Aug-11 16:20N 37°31' W 122°13'0 0.0
2017-Aug-11 16:00N 37°31' W 122°13'0 0.0
2017-Aug-11 15:30N 37°31' W 122°13'0 0.0
2017-Aug-11 15:00N 37°31' W 122°13'3 2.7
2017-Aug-11 14:00N 37°33' W 122°12'1 2.1
2017-Aug-11 13:30N 37°34' W 122°13'2 3.9
2017-Aug-11 13:00N 37°32' W 122°12'2 3.9
2017-Aug-11 12:30N 37°30' W 122°13'0 0.2
2017-Aug-11 12:00N 37°31' W 122°13'0 0.0
2017-Aug-11 11:29N 37°31' W 122°13'0 0.0
2017-Aug-11 10:57N 37°31' W 122°13'0 0.0
2017-Aug-11 10:30N 37°31' W 122°13'0 0.0
2017-Aug-11 09:58N 37°31' W 122°13'0 0.0
2017-Aug-11 09:30N 37°31' W 122°13'0 0.0
2017-Aug-11 09:00N 37°31' W 122°13'0 0.0
2017-Aug-11 08:30N 37°31' W 122°13'0 0.0
2017-Aug-11 08:00N 37°31' W 122°13'0 0.0
2017-Aug-11 07:30N 37°31' W 122°13'0 0.0
2017-Aug-11 07:00N 37°31' W 122°13'0 0.0
2017-Aug-11 06:30N 37°31' W 122°13'0 0.0
2017-Aug-11 06:00N 37°31' W 122°13'0 0.0
2017-Aug-11 05:30N 37°31' W 122°13'0 0.0
2017-Aug-11 05:00N 37°31' W 122°13'0 0.0
2017-Aug-11 04:30N 37°31' W 122°13'0 0.0
2017-Aug-11 04:00N 37°31' W 122°13'0 0.0
2017-Aug-11 03:30N 37°31' W 122°13'0 0.0
2017-Aug-11 03:00N 37°31' W 122°13'0 0.0
2017-Aug-11 02:30N 37°31' W 122°13'0 0.0
2017-Aug-11 02:00N 37°31' W 122°13'0 0.0
2017-Aug-11 01:30N 37°31' W 122°13'0 0.0
2017-Aug-11 01:00N 37°31' W 122°13'0 0.0
2017-Aug-11 00:30N 37°31' W 122°13'0 0.0
2017-Aug-10 23:59N 37°31' W 122°13'0 0.0
2017-Aug-10 23:30N 37°31' W 122°13'0 0.0
2017-Aug-10 23:00N 37°31' W 122°13'0 0.0
2017-Aug-10 22:30N 37°31' W 122°13'0 0.0
2017-Aug-10 22:00N 37°31' W 122°13'0 0.9
2017-Aug-10 21:30N 37°31' W 122°13'2 4.8
2017-Aug-10 21:00N 37°33' W 122°11'0 0.6
2017-Aug-10 20:30N 37°33' W 122°12'3 5.3
2017-Aug-10 20:00N 37°31' W 122°13'0 0.1
2017-Aug-10 19:30N 37°31' W 122°13'0 0.0
2017-Aug-10 19:00N 37°31' W 122°13'0 0.0
2017-Aug-10 18:30N 37°31' W 122°13'0 0.0
2017-Aug-10 18:00N 37°31' W 122°13'0 0.0
2017-Aug-10 17:30N 37°31' W 122°13'0 0.2
2017-Aug-10 17:00N 37°31' W 122°13'0 0.0
2017-Aug-10 16:30N 37°31' W 122°13'0 0.0
2017-Aug-10 16:00N 37°31' W 122°13'0 0.0
2017-Aug-10 15:30N 37°31' W 122°13'0 0.2
2017-Aug-10 15:00N 37°31' W 122°13'0 0.1
2017-Aug-10 14:30N 37°31' W 122°13'0 0.0
2017-Aug-10 13:56N 37°31' W 122°13'0 0.3
2017-Aug-10 13:30N 37°31' W 122°13'2 3.5
2017-Aug-10 13:00N 37°32' W 122°12'1 2.4
2017-Aug-10 12:30N 37°31' W 122°12'1 1.6
2017-Aug-10 12:00N 37°31' W 122°13'0 0.2
2017-Aug-10 11:29N 37°31' W 122°13'0 0.0
2017-Aug-10 10:41N 37°31' W 122°13'0 0.0
2017-Aug-10 10:27N 37°31' W 122°13'0 0.0
2017-Aug-10 10:00N 37°31' W 122°13'0 0.0
2017-Aug-10 09:28N 37°31' W 122°13'0 0.0
2017-Aug-10 09:00N 37°31' W 122°13'0 0.0
2017-Aug-10 08:30N 37°31' W 122°13'0 0.0
2017-Aug-10 07:59N 37°31' W 122°13'0 0.0
2017-Aug-10 07:24N 37°31' W 122°13'0 0.0
2017-Aug-10 07:00N 37°31' W 122°13'0 0.0
2017-Aug-10 06:26N 37°31' W 122°13'0 0.0
2017-Aug-10 05:57N 37°31' W 122°13'0 0.0
2017-Aug-10 05:28N 37°31' W 122°13'0 0.0
2017-Aug-10 05:00N 37°31' W 122°13'0 0.0
2017-Aug-10 04:30N 37°31' W 122°13'0 0.0
2017-Aug-10 03:59N 37°31' W 122°13'0 0.0
2017-Aug-10 03:21N 37°31' W 122°13'0 0.0
2017-Aug-10 03:00N 37°31' W 122°13'0 0.7
2017-Aug-10 02:30N 37°30' W 122°13'0 0.0
2017-Aug-10 02:01N 37°30' W 122°13'0 0.0
2017-Aug-10 01:28N 37°30' W 122°13'0 0.0
2017-Aug-10 01:00N 37°30' W 122°13'0 0.0
2017-Aug-10 00:30N 37°30' W 122°13'0 0.2
2017-Aug-09 23:59N 37°30' W 122°13'3 5.8
2017-Aug-09 23:30N 37°33' W 122°12'0 0.4
2017-Aug-09 23:00N 37°33' W 122°12'2 4.9
2017-Aug-09 22:30N 37°31' W 122°13'1 1.3
2017-Aug-09 22:00N 37°30' W 122°13'0 0.1
2017-Aug-09 21:30N 37°30' W 122°13'0 0.1
2017-Aug-09 21:00N 37°30' W 122°13'0 0.0
2017-Aug-09 20:30N 37°30' W 122°13'0 0.0
2017-Aug-09 20:00N 37°30' W 122°13'0 0.0
2017-Aug-09 19:30N 37°30' W 122°13'0 0.0
2017-Aug-09 18:59N 37°30' W 122°13'0 0.0
2017-Aug-09 18:29N 37°30' W 122°13'0 0.0
2017-Aug-09 17:57N 37°30' W 122°13'0 0.0
2017-Aug-09 17:30N 37°30' W 122°13'0 0.0
2017-Aug-09 16:59N 37°30' W 122°13'0 0.0
2017-Aug-09 16:26N 37°30' W 122°13'0 0.0
2017-Aug-09 16:00N 37°30' W 122°13'0 0.1
2017-Aug-09 15:30N 37°30' W 122°13'1 2.2
2017-Aug-09 15:00N 37°31' W 122°12'1 1.7
2017-Aug-09 14:30N 37°31' W 122°13'0 0.7
2017-Aug-09 14:00N 37°30' W 122°13'0 0.0
2017-Aug-09 13:30N 37°30' W 122°13'0 0.0
2017-Aug-09 12:59N 37°30' W 122°13'0 0.0
2017-Aug-09 12:30N 37°30' W 122°13'0 0.0
2017-Aug-09 12:00N 37°30' W 122°13'0 0.0
2017-Aug-09 11:30N 37°30' W 122°13'0 0.0
2017-Aug-09 11:00N 37°30' W 122°13'0 0.0
2017-Aug-09 10:30N 37°30' W 122°13'0 0.0
2017-Aug-09 10:00N 37°30' W 122°13'0 0.0
2017-Aug-09 08:43N 37°30' W 122°13'0 0.0
2017-Aug-09 08:30N 37°30' W 122°13'0 0.0
2017-Aug-09 08:01N 37°30' W 122°13'0 0.1
2017-Aug-09 07:28N 37°30' W 122°13'0 0.0
2017-Aug-09 06:58N 37°30' W 122°13'0 0.0
2017-Aug-09 06:26N 37°30' W 122°13'0 0.0
2017-Aug-09 05:57N 37°30' W 122°13'0 0.0
2017-Aug-09 05:25N 37°30' W 122°13'0 0.0
2017-Aug-09 04:59N 37°30' W 122°13'0 0.0
2017-Aug-09 04:21N 37°30' W 122°13'0 0.0
2017-Aug-09 04:00N 37°30' W 122°13'0 0.0
2017-Aug-09 03:30N 37°30' W 122°13'0 0.0
2017-Aug-09 02:59N 37°30' W 122°13'0 0.0
2017-Aug-09 02:31N 37°30' W 122°13'0 0.0
2017-Aug-09 02:00N 37°30' W 122°13'0 0.0
2017-Aug-09 01:31N 37°30' W 122°13'0 0.0
2017-Aug-09 01:00N 37°30' W 122°13'0 0.1
2017-Aug-09 00:30N 37°30' W 122°13'0 0.0
2017-Aug-09 00:01N 37°30' W 122°13'0 0.0
2017-Aug-08 23:28N 37°30' W 122°13'0 0.1
2017-Aug-08 23:00N 37°30' W 122°13'1 1.4
2017-Aug-08 22:30N 37°31' W 122°12'0 0.5
2017-Aug-08 22:00N 37°31' W 122°12'1 1.9
2017-Aug-08 21:30N 37°30' W 122°13'0 0.1
2017-Aug-08 20:51N 37°30' W 122°13'0 0.0
2017-Aug-08 20:30N 37°30' W 122°13'0 0.0
2017-Aug-08 20:00N 37°30' W 122°13'0 0.0
2017-Aug-08 19:31N 37°31' W 122°13'0 0.0
2017-Aug-08 19:00N 37°31' W 122°13'0 0.0
2017-Aug-08 18:30N 37°31' W 122°13'0 0.0
2017-Aug-08 18:00N 37°31' W 122°13'0 0.0
2017-Aug-08 17:30N 37°31' W 122°13'0 0.0
2017-Aug-08 17:00N 37°31' W 122°13'0 0.4
2017-Aug-08 16:30N 37°31' W 122°13'1 1.5
2017-Aug-08 16:00N 37°31' W 122°12'0 0.3
2017-Aug-08 15:30N 37°31' W 122°12'1 2.3
2017-Aug-08 15:00N 37°30' W 122°13'0 0.0
2017-Aug-08 14:30N 37°30' W 122°13'0 0.0
2017-Aug-08 14:00N 37°30' W 122°13'0 0.0
2017-Aug-08 13:30N 37°30' W 122°13'0 0.0
2017-Aug-08 12:09N 37°31' W 122°13'0 0.0
2017-Aug-08 12:01N 37°31' W 122°13'0 0.0
2017-Aug-08 11:30N 37°31' W 122°13'0 0.0
2017-Aug-08 10:58N 37°31' W 122°13'0 0.0
2017-Aug-08 10:30N 37°31' W 122°13'0 0.0
2017-Aug-08 09:58N 37°31' W 122°13'0 0.0
2017-Aug-08 09:31N 37°31' W 122°13'0 0.0
2017-Aug-08 09:00N 37°31' W 122°13'0 0.0
2017-Aug-08 08:30N 37°31' W 122°13'0 0.1
2017-Aug-08 08:00N 37°31' W 122°13'0 0.0
2017-Aug-08 07:30N 37°31' W 122°13'0 0.0
2017-Aug-08 06:59N 37°31' W 122°13'0 0.0
2017-Aug-08 06:31N 37°31' W 122°13'0 0.0
2017-Aug-08 06:01N 37°31' W 122°13'0 0.0
2017-Aug-08 05:31N 37°31' W 122°13'0 0.0
2017-Aug-08 05:00N 37°31' W 122°13'0 0.0
2017-Aug-08 04:31N 37°31' W 122°13'0 0.0
2017-Aug-08 04:01N 37°31' W 122°13'0 0.0
2017-Aug-08 03:29N 37°31' W 122°13'0 0.0
2017-Aug-08 02:59N 37°31' W 122°13'0 0.4
2017-Aug-08 02:29N 37°31' W 122°13'0 0.1
2017-Aug-08 00:47N 37°31' W 122°13'0 0.0
2017-Aug-08 00:30N 37°31' W 122°13'0 0.0
2017-Aug-08 00:00N 37°31' W 122°13'0 0.0
2017-Aug-07 23:30N 37°31' W 122°13'0 0.0
2017-Aug-07 23:00N 37°31' W 122°13'0 0.0
2017-Aug-07 22:30N 37°31' W 122°13'0 0.0
2017-Aug-07 22:00N 37°31' W 122°13'0 0.0
2017-Aug-07 21:31N 37°31' W 122°13'0 0.0
2017-Aug-07 21:00N 37°31' W 122°13'0 0.4
2017-Aug-07 20:30N 37°31' W 122°13'0 0.4
2017-Aug-07 20:00N 37°31' W 122°13'0 0.0
2017-Aug-07 19:30N 37°31' W 122°13'0 0.0
2017-Aug-07 19:00N 37°31' W 122°13'0 0.0
2017-Aug-07 18:30N 37°31' W 122°13'0 0.0
2017-Aug-07 18:00N 37°31' W 122°13'0 0.0
2017-Aug-07 17:30N 37°31' W 122°13'0 0.0
2017-Aug-07 17:00N 37°31' W 122°13'0 0.4
2017-Aug-07 16:30N 37°30' W 122°13'0 0.1
2017-Aug-07 16:00N 37°30' W 122°13'0 0.0
2017-Aug-07 15:30N 37°30' W 122°13'  

Dump ship's entire track history